Time;durP1;ratioP1;P1;durP2;ratioP2;P2;SDS_P1;SDS_P2;PMS_P1;PMS_P2;Temp;Humidity;BMP_temperature;BMP_pressure;BME280_temperature;BME280_humidity;BME280_pressure;Samples;Min_cycle;Max_cycle;Signal;HPM_P1;HPM_P2
2021/07/22 00:01:34;;;;;;;10.65;6.68;;;22.70;97.30;;;;;;5013372;28;20499;-85
2021/07/22 00:04:02;;;;;;;8.88;7.05;;;22.70;97.40;;;;;;5014063;28;20501;-85
2021/07/22 00:06:30;;;;;;;8.23;6.72;;;22.70;97.50;;;;;;5028740;28;20053;-85
2021/07/22 00:08:57;;;;;;;7.95;6.47;;;22.60;97.50;;;;;;5013783;28;20072;-85
2021/07/22 00:11:24;;;;;;;9.50;6.93;;;22.60;97.50;;;;;;5016388;28;20132;-85
2021/07/22 00:13:51;;;;;;;11.38;7.22;;;22.60;97.60;;;;;;5017402;28;20522;-85
2021/07/22 00:16:19;;;;;;;7.38;6.68;;;22.50;97.70;;;;;;5025758;28;20045;-85
2021/07/22 00:18:46;;;;;;;9.57;7.13;;;22.60;97.70;;;;;;5015755;28;20057;-85
2021/07/22 00:21:13;;;;;;;8.57;6.85;;;22.50;97.80;;;;;;5042557;28;20513;-85
2021/07/22 00:23:40;;;;;;;10.02;6.90;;;22.50;97.90;;;;;;5024290;28;20052;-85
2021/07/22 00:26:07;;;;;;;8.98;6.70;;;22.50;97.90;;;;;;5037309;28;20479;-85
2021/07/22 00:28:34;;;;;;;7.97;7.20;;;22.50;98.00;;;;;;5015526;28;20040;-85
2021/07/22 00:31:01;;;;;;;9.95;6.90;;;22.50;98.00;;;;;;5016174;28;20049;-85
2021/07/22 00:33:27;;;;;;;9.13;6.25;;;22.40;98.10;;;;;;5026043;28;20064;-85
2021/07/22 00:35:56;;;;;;;8.75;6.78;;;22.40;98.10;;;;;;5025985;28;20053;-85
2021/07/22 00:38:23;;;;;;;11.45;7.05;;;22.40;98.20;;;;;;5021694;28;20446;-85
2021/07/22 00:40:50;;;;;;;11.43;6.97;;;22.40;98.20;;;;;;5015574;28;20053;-85
2021/07/22 00:43:16;;;;;;;9.70;6.82;;;22.30;98.30;;;;;;5016115;28;20483;-86
2021/07/22 00:45:44;;;;;;;7.80;7.03;;;22.30;98.30;;;;;;5033028;28;20068;-85
2021/07/22 00:48:10;;;;;;;7.38;6.63;;;22.30;98.40;;;;;;5000926;28;20042;-85
2021/07/22 00:50:37;;;;;;;8.50;7.10;;;22.30;98.50;;;;;;5014901;28;20072;-85
2021/07/22 00:53:04;;;;;;;7.10;6.40;;;22.30;98.50;;;;;;5029886;28;20057;-85
2021/07/22 00:55:31;;;;;;;9.07;7.55;;;22.30;98.50;;;;;;5015605;28;20033;-85
2021/07/22 00:57:58;;;;;;;7.95;6.68;;;22.20;98.50;;;;;;5017500;28;20048;-84
2021/07/22 01:00:25;;;;;;;8.13;6.82;;;22.20;98.60;;;;;;5013762;28;20049;-85
2021/07/22 01:02:52;;;;;;;10.00;7.32;;;22.20;98.60;;;;;;5030351;28;20053;-85
2021/07/22 01:05:19;;;;;;;8.20;7.28;;;22.20;98.70;;;;;;5016637;28;20102;-85
2021/07/22 01:07:46;;;;;;;9.80;7.35;;;22.10;98.80;;;;;;5041785;28;20045;-85
2021/07/22 01:10:13;;;;;;;7.55;6.75;;;22.10;98.80;;;;;;5014065;28;20053;-85
2021/07/22 01:12:40;;;;;;;9.35;7.00;;;22.10;98.90;;;;;;5020745;28;20041;-84
2021/07/22 01:15:07;;;;;;;11.35;7.22;;;22.10;98.90;;;;;;5022764;28;20056;-85
2021/07/22 01:17:43;;;;;;;9.15;6.85;;;22.00;99.00;;;;;;5025364;28;20474;-85
2021/07/22 01:20:21;;;;;;;8.02;7.10;;;22.00;99.00;;;;;;5011834;28;20050;-84
2021/07/22 01:22:51;;;;;;;12.13;7.30;;;22.00;99.40;;;;;;5012457;28;20050;-85
2021/07/22 01:25:19;;;;;;;7.60;6.78;;;22.00;99.20;;;;;;5013320;28;20049;-85
2021/07/22 01:27:46;;;;;;;8.80;7.05;;;21.90;99.20;;;;;;5014751;28;20506;-85
2021/07/22 01:30:14;;;;;;;9.35;7.15;;;21.90;99.20;;;;;;5017937;28;20045;-86
2021/07/22 01:32:42;;;;;;;10.00;7.10;;;21.90;99.20;;;;;;5017972;28;20503;-85
2021/07/22 01:35:11;;;;;;;9.68;7.13;;;21.90;99.30;;;;;;5031927;28;20068;-85
2021/07/22 01:37:39;;;;;;;8.38;6.68;;;21.80;99.30;;;;;;5013719;28;20053;-85
2021/07/22 01:40:07;;;;;;;9.23;6.90;;;21.80;99.40;;;;;;5015394;28;20122;-85
2021/07/22 01:42:34;;;;;;;9.30;7.07;;;21.80;99.40;;;;;;5031904;28;20118;-85
2021/07/22 01:45:03;;;;;;;8.15;7.43;;;21.80;99.40;;;;;;5014416;28;20046;-85
2021/07/22 01:47:34;;;;;;;12.63;7.70;;;21.70;99.50;;;;;;5013868;28;20045;-85
2021/07/22 01:50:02;;;;;;;7.50;6.80;;;21.70;99.50;;;;;;5014018;28;20045;-85
2021/07/22 01:52:29;;;;;;;8.98;6.97;;;21.70;99.50;;;;;;5029864;28;20498;-84
2021/07/22 01:54:55;;;;;;;10.98;7.40;;;21.60;99.60;;;;;;5012901;28;20049;-85
2021/07/22 01:57:22;;;;;;;8.60;7.15;;;21.60;99.60;;;;;;5011981;28;20041;-85
2021/07/22 01:59:49;;;;;;;10.48;7.70;;;21.60;99.70;;;;;;5011277;28;20053;-85
2021/07/22 02:02:16;;;;;;;8.18;7.13;;;21.60;99.80;;;;;;5029588;28;20057;-85
2021/07/22 02:04:43;;;;;;;8.35;7.55;;;21.60;99.80;;;;;;5011124;28;20041;-85
2021/07/22 02:07:11;;;;;;;9.45;7.13;;;21.50;99.90;;;;;;5013204;28;20104;-85
2021/07/22 02:09:39;;;;;;;8.40;7.60;;;21.50;99.90;;;;;;5016173;28;20124;-85
2021/07/22 02:12:06;;;;;;;7.93;6.95;;;21.50;99.90;;;;;;5012168;28;20049;-85
2021/07/22 02:14:33;;;;;;;9.65;6.60;;;21.50;99.90;;;;;;5035780;28;20115;-85
2021/07/22 02:17:00;;;;;;;8.40;6.85;;;21.40;99.90;;;;;;5024802;28;20045;-85
2021/07/22 02:19:27;;;;;;;9.05;7.25;;;21.40;99.90;;;;;;5012801;28;20041;-85
2021/07/22 02:21:54;;;;;;;9.77;7.30;;;21.40;99.90;;;;;;5045155;28;20053;-85
2021/07/22 02:24:21;;;;;;;11.50;7.05;;;21.40;99.90;;;;;;5031788;28;20053;-85
2021/07/22 02:26:48;;;;;;;9.77;7.32;;;21.40;99.90;;;;;;5014050;28;20356;-85
2021/07/22 02:29:15;;;;;;;8.38;7.57;;;21.40;99.90;;;;;;5028648;28;20483;-85
2021/07/22 02:31:42;;;;;;;10.15;7.40;;;21.40;99.90;;;;;;5001122;28;20041;-85
2021/07/22 02:34:09;;;;;;;8.38;7.00;;;21.40;99.90;;;;;;5011229;28;20375;-85
2021/07/22 02:36:36;;;;;;;9.57;6.95;;;21.40;99.90;;;;;;5022092;28;20041;-85
2021/07/22 02:39:03;;;;;;;10.18;7.32;;;21.40;99.90;;;;;;4999043;28;20057;-86
2021/07/22 02:41:32;;;;;;;8.05;7.25;;;21.40;99.90;;;;;;5004810;28;20404;-86
2021/07/22 02:43:59;;;;;;;9.75;7.13;;;21.40;99.90;;;;;;5021434;28;20100;-85
2021/07/22 02:46:26;;;;;;;10.05;7.30;;;21.40;99.90;;;;;;5029435;28;20045;-84
2021/07/22 02:48:56;;;;;;;10.18;6.80;;;21.40;99.90;;;;;;5030632;28;20420;-85
2021/07/22 02:51:24;;;;;;;8.85;7.05;;;21.40;99.90;;;;;;5009823;28;20049;-85
2021/07/22 02:53:51;;;;;;;10.15;7.10;;;21.40;99.90;;;;;;5012671;28;20042;-85
2021/07/22 02:56:18;;;;;;;8.45;7.22;;;21.40;99.90;;;;;;5023546;28;20052;-85
2021/07/22 02:58:44;;;;;;;9.70;7.85;;;21.40;99.90;;;;;;5012682;28;20049;-85
2021/07/22 03:01:11;;;;;;;8.13;7.32;;;21.40;99.90;;;;;;5013795;28;20056;-85
2021/07/22 03:03:39;;;;;;;9.45;7.05;;;21.40;99.90;;;;;;5000230;28;20447;-85
2021/07/22 03:06:06;;;;;;;10.35;7.50;;;21.40;99.90;;;;;;5011858;28;20132;-86
2021/07/22 03:08:33;;;;;;;9.60;7.80;;;21.40;99.90;;;;;;5018850;28;20053;-85
2021/07/22 03:11:00;;;;;;;8.30;7.45;;;21.40;99.90;;;;;;5029830;28;20045;-85
2021/07/22 03:13:27;;;;;;;8.52;7.53;;;21.40;99.90;;;;;;5011273;28;20522;-85
2021/07/22 03:15:54;;;;;;;12.82;8.00;;;21.30;99.90;;;;;;5012325;28;20077;-85
2021/07/22 03:18:21;;;;;;;9.85;7.68;;;21.40;99.90;;;;;;5027634;28;20075;-86
2021/07/22 03:20:48;;;;;;;9.40;7.90;;;21.30;99.90;;;;;;5014628;28;20049;-85
2021/07/22 03:23:16;;;;;;;9.82;7.65;;;21.40;99.90;;;;;;5010729;28;20632;-86
2021/07/22 03:25:44;;;;;;;8.13;7.32;;;21.30;99.90;;;;;;5012836;28;20123;-85
2021/07/22 03:28:11;;;;;;;12.35;7.85;;;21.40;99.90;;;;;;5013782;28;20400;-86
2021/07/22 03:30:41;;;;;;;8.20;7.50;;;21.30;99.90;;;;;;5015694;28;20128;-86
2021/07/22 03:33:08;;;;;;;15.75;7.78;;;21.30;99.90;;;;;;5018429;28;20049;-85
2021/07/22 03:35:35;;;;;;;8.60;7.80;;;21.30;99.90;;;;;;5016562;28;20041;-86
2021/07/22 03:38:02;;;;;;;10.18;7.78;;;21.30;99.90;;;;;;5017647;28;20060;-85
2021/07/22 03:40:29;;;;;;;9.00;8.10;;;21.30;99.90;;;;;;5018579;28;20072;-85
2021/07/22 03:42:56;;;;;;;12.02;8.18;;;21.30;99.90;;;;;;5038202;28;20041;-86
2021/07/22 03:45:23;;;;;;;8.52;7.70;;;21.30;99.90;;;;;;5014558;28;20049;-85
2021/07/22 03:47:50;;;;;;;8.15;7.35;;;21.20;99.90;;;;;;5028887;28;20057;-85
2021/07/22 03:50:17;;;;;;;8.18;7.38;;;21.20;99.90;;;;;;5015453;28;20457;-85
2021/07/22 03:52:44;;;;;;;8.60;7.78;;;21.20;99.90;;;;;;5032740;28;20057;-85
2021/07/22 03:55:11;;;;;;;8.88;7.88;;;21.20;99.90;;;;;;5015398;28;20119;-85
2021/07/22 03:57:41;;;;;;;9.13;7.00;;;21.20;99.90;;;;;;5005101;28;20052;-85
2021/07/22 04:00:10;;;;;;;8.70;7.78;;;21.20;99.90;;;;;;4999299;28;20049;-85
2021/07/22 04:02:41;;;;;;;8.00;7.30;;;21.20;99.90;;;;;;4997570;28;20126;-85
2021/07/22 04:05:09;;;;;;;8.63;7.72;;;21.10;99.90;;;;;;5001750;28;20054;-85
2021/07/22 04:07:36;;;;;;;8.52;7.60;;;21.10;99.90;;;;;;4996672;28;20041;-85
2021/07/22 04:10:03;;;;;;;8.65;7.72;;;21.10;99.90;;;;;;4997637;28;20054;-85
2021/07/22 04:12:30;;;;;;;10.18;8.35;;;21.00;99.90;;;;;;4999869;28;20041;-85
2021/07/22 04:14:57;;;;;;;8.73;7.68;;;21.10;99.90;;;;;;5000120;28;20496;-85
2021/07/22 04:17:28;;;;;;;9.70;8.48;;;21.00;99.90;;;;;;5012545;28;20129;-85
2021/07/22 04:19:56;;;;;;;8.68;7.88;;;21.00;99.90;;;;;;5012942;28;20535;-85
2021/07/22 04:22:23;;;;;;;9.13;7.75;;;21.00;99.90;;;;;;5013009;28;20447;-86
2021/07/22 04:24:50;;;;;;;8.77;7.90;;;21.00;99.90;;;;;;5014342;28;20057;-85
2021/07/22 04:27:19;;;;;;;10.07;8.18;;;20.90;99.90;;;;;;5012886;28;20046;-85
2021/07/22 04:29:47;;;;;;;9.90;8.10;;;20.90;99.90;;;;;;4993089;28;20545;-85
2021/07/22 04:32:14;;;;;;;10.50;8.30;;;20.90;99.90;;;;;;4992496;28;20399;-85
2021/07/22 04:34:41;;;;;;;9.75;8.10;;;20.90;99.90;;;;;;4999151;28;20061;-85
2021/07/22 04:37:08;;;;;;;8.60;7.75;;;20.90;99.90;;;;;;5006422;28;20049;-84
2021/07/22 04:39:34;;;;;;;10.13;8.50;;;20.80;99.90;;;;;;5004929;28;20045;-85
2021/07/22 04:42:02;;;;;;;10.43;8.50;;;20.80;99.90;;;;;;4986473;28;20046;-85
2021/07/22 04:44:29;;;;;;;11.18;8.25;;;20.80;99.90;;;;;;4997507;28;20038;-85
2021/07/22 04:46:56;;;;;;;9.05;7.72;;;20.80;99.90;;;;;;5011388;28;20053;-85
2021/07/22 04:49:23;;;;;;;9.63;8.70;;;20.80;99.90;;;;;;4993990;28;20046;-85
2021/07/22 04:51:50;;;;;;;12.13;9.23;;;20.70;99.90;;;;;;5010328;28;20063;-86
2021/07/22 04:54:17;;;;;;;11.48;8.32;;;20.80;99.90;;;;;;5019939;28;20042;-85
2021/07/22 04:56:44;;;;;;;9.68;8.50;;;20.70;99.90;;;;;;4999101;28;20108;-84
2021/07/22 04:59:11;;;;;;;10.20;9.13;;;20.70;99.90;;;;;;4995188;28;20054;-86
2021/07/22 05:01:38;;;;;;;13.68;8.32;;;20.70;99.90;;;;;;4994484;28;20042;-85
2021/07/22 05:04:07;;;;;;;9.52;8.52;;;20.70;99.90;;;;;;4994756;28;20065;-85
2021/07/22 05:06:34;;;;;;;10.65;9.13;;;20.70;99.90;;;;;;4994884;28;20052;-85
2021/07/22 05:09:01;;;;;;;11.65;8.75;;;20.70;99.90;;;;;;4996489;28;20050;-85
2021/07/22 05:11:30;;;;;;;9.38;8.23;;;20.70;99.90;;;;;;5014761;28;20476;-85
2021/07/22 05:13:57;;;;;;;10.23;8.32;;;20.70;99.90;;;;;;4993175;28;20061;-86
2021/07/22 05:16:24;;;;;;;12.32;8.77;;;20.70;99.90;;;;;;4994697;28;20061;-85
2021/07/22 05:18:51;;;;;;;11.40;8.50;;;20.70;99.90;;;;;;4995642;28;20123;-85
2021/07/22 05:21:22;;;;;;;10.77;8.57;;;20.70;99.90;;;;;;4994527;28;20049;-86
2021/07/22 05:23:50;;;;;;;9.48;8.57;;;20.70;99.90;;;;;;5008354;28;20480;-87
2021/07/22 05:26:17;;;;;;;12.07;8.43;;;20.70;99.90;;;;;;4990394;28;20038;-86
2021/07/22 05:28:44;;;;;;;10.70;8.82;;;20.80;99.90;;;;;;5013609;28;20049;-87
2021/07/22 05:31:12;;;;;;;11.77;8.70;;;20.80;99.90;;;;;;5004894;28;20048;-86
2021/07/22 05:33:40;;;;;;;10.35;8.73;;;20.80;99.90;;;;;;5019900;28;20092;-87
2021/07/22 05:36:08;;;;;;;9.65;8.70;;;20.90;99.90;;;;;;4991220;28;20046;-86
2021/07/22 05:38:37;;;;;;;11.82;8.70;;;20.90;99.90;;;;;;4993083;28;20432;-86
2021/07/22 05:41:05;;;;;;;;;;;20.90;99.90;;;;;;5011902;28;20396;-87
2021/07/22 05:43:33;;;;;;;12.70;8.20;;;20.90;99.90;;;;;;4993916;28;19921;-87
2021/07/22 05:46:04;;;;;;;14.10;8.32;;;21.00;99.90;;;;;;4977435;28;20392;-86
2021/07/22 05:48:31;;;;;;;9.10;8.20;;;21.10;99.90;;;;;;4994749;28;20041;-86
2021/07/22 05:51:02;;;;;;;9.40;8.40;;;21.10;99.90;;;;;;4994362;28;20046;-86
2021/07/22 05:53:29;;;;;;;9.63;8.60;;;21.20;99.90;;;;;;4990252;28;20037;-86
2021/07/22 05:55:58;;;;;;;11.88;8.45;;;21.20;99.90;;;;;;4994853;28;20050;-86
2021/07/22 05:58:25;;;;;;;10.32;8.65;;;21.30;99.90;;;;;;4993376;28;20046;-86
2021/07/22 06:01:00;;;;;;;10.90;8.30;;;21.40;99.90;;;;;;5006880;28;20042;-87
2021/07/22 06:03:28;;;;;;;12.02;7.97;;;21.50;99.90;;;;;;5023166;28;20516;-86
2021/07/22 06:05:55;;;;;;;8.98;8.07;;;21.50;99.90;;;;;;5019903;28;20057;-86
2021/07/22 06:08:22;;;;;;;9.77;7.93;;;21.60;99.90;;;;;;5018431;28;20045;-86
2021/07/22 06:10:49;;;;;;;15.95;9.40;;;21.70;99.90;;;;;;5017017;28;20045;-86
2021/07/22 06:13:16;;;;;;;10.75;7.88;;;21.80;99.90;;;;;;5025016;28;20072;-87
2021/07/22 06:15:43;;;;;;;9.18;8.38;;;21.80;99.90;;;;;;5013093;28;20480;-85
2021/07/22 06:18:10;;;;;;;9.30;8.10;;;21.90;99.90;;;;;;5016408;28;20092;-86
2021/07/22 06:20:39;;;;;;;9.70;8.70;;;22.00;99.90;;;;;;5012795;28;20042;-86
2021/07/22 06:23:06;;;;;;;15.13;9.10;;;22.10;99.90;;;;;;5013685;28;20053;-86
2021/07/22 06:25:33;;;;;;;12.90;8.70;;;22.20;99.90;;;;;;5008255;28;20053;-86
2021/07/22 06:28:00;;;;;;;12.73;8.40;;;22.30;99.90;;;;;;5030805;28;20483;-86
2021/07/22 06:30:27;;;;;;;11.38;8.73;;;22.40;99.90;;;;;;5013510;28;20473;-86
2021/07/22 06:32:54;;;;;;;10.07;8.75;;;22.50;99.90;;;;;;5012807;28;20045;-86
2021/07/22 06:35:21;;;;;;;12.18;8.63;;;22.60;99.90;;;;;;5013313;28;20041;-86
2021/07/22 06:37:49;;;;;;;12.25;9.02;;;22.60;99.90;;;;;;5008653;28;20076;-86
2021/07/22 06:40:16;;;;;;;12.67;9.30;;;22.70;99.90;;;;;;5022715;28;20080;-86
2021/07/22 06:42:43;;;;;;;11.75;8.90;;;22.80;99.90;;;;;;5008660;28;20491;-86
2021/07/22 06:45:11;;;;;;;12.40;9.43;;;22.90;99.90;;;;;;5009143;28;20042;-87
2021/07/22 06:47:39;;;;;;;12.30;9.23;;;23.00;99.90;;;;;;5004328;28;20048;-87
2021/07/22 06:50:08;;;;;;;12.82;8.85;;;23.10;99.90;;;;;;5011005;28;20050;-85
2021/07/22 06:52:38;;;;;;;11.90;9.30;;;23.20;99.90;;;;;;5030040;28;20382;-85
2021/07/22 06:55:06;;;;;;;12.65;8.77;;;23.30;99.90;;;;;;5031163;28;20479;-85
2021/07/22 06:57:34;;;;;;;11.95;9.10;;;23.50;99.90;;;;;;5027505;28;20049;-84
2021/07/22 07:00:03;;;;;;;11.83;9.10;;;23.50;99.90;;;;;;5013361;28;20041;-85
2021/07/22 07:02:30;;;;;;;;;;;23.70;99.80;;;;;;5011060;28;20367;-84
2021/07/22 07:04:57;;;;;;;11.40;9.20;;;23.80;99.40;;;;;;5029359;28;19972;-85
2021/07/22 07:07:24;;;;;;;10.88;8.82;;;23.90;99.50;;;;;;5012415;28;20476;-85
2021/07/22 07:09:52;;;;;;;10.68;9.32;;;24.00;99.40;;;;;;5011978;28;20053;-85
2021/07/22 07:12:19;;;;;;;16.85;9.50;;;24.10;99.10;;;;;;5024651;28;20396;-84
2021/07/22 07:14:47;;;;;;;9.57;8.73;;;24.30;99.00;;;;;;5029248;28;20044;-85
2021/07/22 07:17:15;;;;;;;12.05;9.23;;;24.40;98.90;;;;;;5008330;28;20148;-85
2021/07/22 07:19:43;;;;;;;14.38;9.73;;;24.60;98.80;;;;;;5028408;28;20509;-85
2021/07/22 07:22:11;;;;;;;10.43;9.40;;;24.70;98.50;;;;;;5022052;28;20042;-86
2021/07/22 07:24:38;;;;;;;11.32;9.88;;;24.80;98.30;;;;;;5005917;28;20057;-85
2021/07/22 07:27:05;;;;;;;10.35;8.52;;;25.00;98.10;;;;;;5009519;28;20056;-85
2021/07/22 07:29:33;;;;;;;12.43;9.13;;;25.10;97.90;;;;;;5012503;28;20045;-85
2021/07/22 07:32:00;;;;;;;10.63;9.48;;;25.20;97.70;;;;;;5007678;28;20052;-85
2021/07/22 07:34:27;;;;;;;11.65;10.10;;;25.40;97.70;;;;;;5021753;28;20049;-85
2021/07/22 07:36:54;;;;;;;13.63;9.75;;;25.40;97.50;;;;;;5025445;28;20045;-85
2021/07/22 07:39:21;;;;;;;12.18;10.77;;;25.60;97.40;;;;;;5027505;28;20046;-85
2021/07/22 07:41:48;;;;;;;12.98;9.77;;;25.70;97.30;;;;;;5019883;28;20064;-84
2021/07/22 07:44:15;;;;;;;11.50;9.63;;;25.90;97.20;;;;;;5006992;28;20060;-85
2021/07/22 07:46:42;;;;;;;13.13;10.00;;;26.00;96.90;;;;;;5004803;28;20053;-85
2021/07/22 07:49:09;;;;;;;13.02;9.90;;;26.10;96.50;;;;;;5009573;28;20041;-85
2021/07/22 07:51:36;;;;;;;13.48;10.52;;;26.20;96.40;;;;;;5011037;28;20069;-85
2021/07/22 07:54:04;;;;;;;11.50;10.30;;;26.30;96.20;;;;;;5024678;28;20065;-85
2021/07/22 07:56:31;;;;;;;11.57;10.43;;;26.50;96.00;;;;;;5027723;28;20042;-85
2021/07/22 07:58:58;;;;;;;11.75;10.65;;;26.60;95.60;;;;;;5007043;28;20053;-85
2021/07/22 08:01:29;;;;;;;12.38;10.00;;;26.70;95.40;;;;;;4999251;28;20041;-85
2021/07/22 08:04:00;;;;;;;13.95;10.23;;;26.80;95.40;;;;;;5037887;28;20132;-85
2021/07/22 08:06:27;;;;;;;17.20;10.93;;;27.00;95.60;;;;;;5019585;28;20050;-85
2021/07/22 08:08:54;;;;;;;15.65;10.90;;;27.10;95.40;;;;;;5016751;28;20483;-84
2021/07/22 08:11:20;;;;;;;12.48;11.32;;;27.30;95.20;;;;;;5016321;28;20102;-85
2021/07/22 08:13:48;;;;;;;11.90;10.70;;;27.50;95.00;;;;;;5015423;28;20048;-85
2021/07/22 08:16:18;;;;;;;13.02;11.57;;;27.60;94.70;;;;;;5010820;28;20450;-85
2021/07/22 08:18:49;;;;;;;15.23;11.43;;;27.70;93.90;;;;;;5037217;28;20388;-85
2021/07/22 08:21:16;;;;;;;12.55;11.10;;;27.80;93.80;;;;;;5042830;28;20391;-84
2021/07/22 08:23:43;;;;;;;14.50;11.55;;;28.00;93.40;;;;;;5036456;28;20045;-85
2021/07/22 08:26:10;;;;;;;13.25;11.98;;;28.10;93.00;;;;;;5019056;28;20049;-85
2021/07/22 08:28:37;;;;;;;14.60;12.25;;;28.20;92.50;;;;;;5021764;28;20046;-85
2021/07/22 08:31:04;;;;;;;13.82;12.27;;;28.30;92.30;;;;;;5032048;28;20124;-84
2021/07/22 08:33:31;;;;;;;13.05;11.70;;;28.40;92.20;;;;;;5021024;28;20045;-85
2021/07/22 08:35:58;;;;;;;14.05;12.75;;;28.50;91.70;;;;;;5042937;28;20049;-84
2021/07/22 08:38:25;;;;;;;14.13;12.73;;;28.60;91.10;;;;;;5025270;28;20041;-85
2021/07/22 08:40:53;;;;;;;16.23;12.20;;;28.60;90.90;;;;;;5013851;28;20052;-84
2021/07/22 08:43:21;;;;;;;14.25;12.23;;;28.70;90.90;;;;;;5003158;28;20045;-85
2021/07/22 08:45:48;;;;;;;;;;;28.70;90.90;;;;;;5012734;28;20479;-84
2021/07/22 08:48:16;;;;;;;13.85;12.50;;;28.70;90.50;;;;;;5035542;28;19967;-85
2021/07/22 08:50:45;;;;;;;13.45;12.18;;;28.80;91.00;;;;;;5018215;28;20045;-85
2021/07/22 08:53:14;;;;;;;13.55;12.18;;;28.90;90.70;;;;;;5016886;28;20044;-84
2021/07/22 08:55:45;;;;;;;14.30;11.40;;;28.90;90.20;;;;;;5016335;28;20041;-84
2021/07/22 08:58:13;;;;;;;12.57;11.25;;;29.00;90.20;;;;;;5021332;28;20058;-85
2021/07/22 09:00:41;;;;;;;13.93;11.35;;;29.20;90.00;;;;;;5023828;28;20045;-85
2021/07/22 09:03:13;;;;;;;15.50;11.90;;;29.30;89.50;;;;;;5027392;28;20124;-85
2021/07/22 09:05:41;;;;;;;14.20;11.98;;;29.40;89.00;;;;;;5025166;28;20038;-85
2021/07/22 09:08:08;;;;;;;17.15;12.32;;;29.40;88.70;;;;;;5024362;28;20154;-83
2021/07/22 09:10:35;;;;;;;13.70;12.35;;;29.40;88.70;;;;;;5022435;28;20041;-85
2021/07/22 09:13:03;;;;;;;14.03;11.87;;;29.40;88.20;;;;;;5022744;28;20037;-85
2021/07/22 09:15:33;;;;;;;14.13;12.63;;;29.30;88.10;;;;;;5024840;28;20041;-85
2021/07/22 09:18:21;;;;;;;14.55;13.05;;;29.30;87.70;;;;;;5019495;28;20042;-86
2021/07/22 09:20:48;;;;;;;16.27;13.05;;;29.20;86.60;;;;;;5039225;28;20412;-86
2021/07/22 09:23:28;;;;;;;16.63;13.18;;;29.20;88.20;;;;;;5023185;28;20053;-85
2021/07/22 09:25:55;;;;;;;13.13;11.77;;;29.30;88.20;;;;;;5019648;28;20049;-84
2021/07/22 09:28:25;;;;;;;13.93;12.20;;;29.30;88.00;;;;;;5020957;28;20479;-85
2021/07/22 09:31:05;;;;;;;15.07;12.27;;;29.30;87.80;;;;;;5033590;28;20132;-85
2021/07/22 09:33:43;;;;;;;16.75;12.75;;;29.20;87.10;;;;;;5034833;28;20044;-85
2021/07/22 09:36:19;;;;;;;14.70;12.95;;;29.10;87.40;;;;;;5032602;28;20053;-85
2021/07/22 09:38:46;;;;;;;14.13;12.63;;;29.10;87.60;;;;;;5013783;28;20056;-84
2021/07/22 09:41:23;;;;;;;14.07;12.50;;;29.30;88.50;;;;;;5006868;28;20052;-85
2021/07/22 09:43:50;;;;;;;14.27;12.77;;;29.50;89.50;;;;;;5018509;28;20494;-84
2021/07/22 09:46:17;;;;;;;13.83;12.57;;;29.60;88.20;;;;;;5019791;28;20046;-85
2021/07/22 09:49:12;;;;;;;13.50;12.20;;;29.60;87.30;;;;;;5032745;28;20042;-84
2021/07/22 09:51:39;;;;;;;13.90;11.90;;;29.70;85.70;;;;;;5010936;28;20424;-84
2021/07/22 09:54:11;;;;;;;13.75;12.35;;;29.80;86.60;;;;;;5029127;28;20774;-84
2021/07/22 09:56:39;;;;;;;19.55;12.20;;;29.80;85.70;;;;;;5014308;28;20057;-84
2021/07/22 09:59:08;;;;;;;;;;;29.90;85.70;;;;;;5027692;28;20045;-85
2021/07/22 10:01:44;;;;;;;13.95;12.00;;;30.10;85.00;;;;;;5022322;28;19924;-85
2021/07/22 10:04:13;;;;;;;15.25;12.30;;;30.20;85.30;;;;;;5010671;28;20065;-84
2021/07/22 10:06:45;;;;;;;14.10;12.40;;;30.30;85.70;;;;;;5025423;28;20083;-84
2021/07/22 10:09:21;;;;;;;14.70;12.18;;;30.30;85.20;;;;;;5006644;28;20053;-84
2021/07/22 10:11:49;;;;;;;13.60;12.15;;;30.30;85.00;;;;;;5023971;28;20045;-84
2021/07/22 10:14:18;;;;;;;17.33;11.63;;;30.30;85.30;;;;;;5019447;28;20046;-84
2021/07/22 10:16:48;;;;;;;11.93;10.75;;;30.10;85.20;;;;;;5005843;28;20057;-84
2021/07/22 10:19:19;;;;;;;12.82;11.27;;;30.00;85.10;;;;;;5021261;28;20050;-84
2021/07/22 10:21:48;;;;;;;13.10;11.65;;;30.00;84.90;;;;;;5013759;28;20051;-83
2021/07/22 10:24:16;;;;;;;13.52;11.38;;;30.00;84.90;;;;;;5008822;28;20038;-84
2021/07/22 10:26:43;;;;;;;;;;;30.00;85.10;;;;;;5008525;28;20142;-84
2021/07/22 10:29:11;;;;;;;11.60;10.45;;;29.90;84.30;;;;;;5009155;28;19924;-83
2021/07/22 10:31:46;;;;;;;14.23;10.32;;;29.90;84.60;;;;;;5009418;28;20049;-84
2021/07/22 10:34:16;;;;;;;12.23;9.93;;;30.00;84.60;;;;;;5008483;28;20053;-84
2021/07/22 10:36:45;;;;;;;11.80;10.68;;;30.00;84.30;;;;;;5022905;28;20060;-84
2021/07/22 10:39:13;;;;;;;13.25;10.35;;;30.10;84.30;;;;;;5008448;28;20057;-84
2021/07/22 10:41:41;;;;;;;;;;;30.10;84.50;;;;;;5029766;28;20071;-85
2021/07/22 10:44:20;;;;;;;;;;;30.20;84.80;;;;;;5014797;28;19921;-84
2021/07/22 10:46:54;;;;;;;13.63;9.80;;;30.30;85.40;;;;;;5011476;28;19932;-84
2021/07/22 10:49:44;;;;;;;11.30;10.20;;;30.50;84.80;;;;;;5005588;28;20042;-85
2021/07/22 10:52:13;;;;;;;12.65;11.25;;;30.60;83.60;;;;;;5031376;28;20049;-84
2021/07/22 10:54:51;;;;;;;14.38;11.63;;;30.60;84.20;;;;;;5010417;28;20046;-84
2021/07/22 10:57:33;;;;;;;12.07;10.50;;;30.70;84.10;;;;;;5006439;28;20053;-84
2021/07/22 11:00:01;;;;;;;13.05;10.80;;;30.80;84.00;;;;;;5024755;28;20057;-84
2021/07/22 11:02:47;;;;;;;12.60;11.18;;;30.90;84.30;;;;;;5006070;28;20045;-84
2021/07/22 11:05:40;;;;;;;15.63;11.70;;;30.90;83.70;;;;;;5024327;28;20041;-84
2021/07/22 11:08:20;;;;;;;11.90;10.40;;;30.90;84.40;;;;;;4980558;28;20085;-84
2021/07/22 11:10:51;;;;;;;12.32;11.07;;;31.00;82.80;;;;;;4984043;28;20046;-84
2021/07/22 11:13:44;;;;;;;10.85;9.75;;;30.90;83.10;;;;;;4965582;28;20109;-84
2021/07/22 11:16:25;;;;;;;17.58;10.57;;;30.90;83.20;;;;;;4966975;28;20536;-85
2021/07/22 11:18:54;;;;;;;12.52;9.55;;;30.90;83.80;;;;;;4968967;28;20054;-84
2021/07/22 11:21:26;;;;;;;13.23;9.02;;;31.00;83.80;;;;;;4983100;28;20046;-84
2021/07/22 11:23:59;;;;;;;11.38;9.45;;;31.00;83.20;;;;;;4982291;28;20046;-85
2021/07/22 11:26:41;;;;;;;9.70;8.73;;;31.00;83.50;;;;;;4981668;28;20038;-84
2021/07/22 11:29:13;;;;;;;11.68;10.18;;;31.10;84.00;;;;;;4966998;28;20489;-84
2021/07/22 11:31:49;;;;;;;;;;;31.10;83.30;;;;;;4981443;28;20043;-84
2021/07/22 11:34:34;;;;;;;11.15;8.95;;;31.10;82.00;;;;;;4967270;28;20338;-84
2021/07/22 11:37:02;;;;;;;9.00;7.72;;;31.10;82.30;;;;;;4973762;28;20046;-85
2021/07/22 11:39:40;;;;;;;12.60;8.65;;;31.10;82.30;;;;;;4965531;28;20358;-84
2021/07/22 11:42:08;;;;;;;12.30;8.65;;;31.10;82.30;;;;;;4979656;28;20050;-84
2021/07/22 11:44:36;;;;;;;10.88;8.50;;;31.10;82.00;;;;;;4988679;28;20490;-84
2021/07/22 11:47:10;;;;;;;12.10;9.05;;;31.20;82.80;;;;;;5007206;28;20329;-86
2021/07/22 11:49:39;;;;;;;10.50;9.40;;;31.20;82.20;;;;;;5004013;28;20033;-84
2021/07/22 11:52:06;;;;;;;11.00;9.52;;;31.30;82.80;;;;;;5021109;28;20038;-84
2021/07/22 11:54:33;;;;;;;14.60;9.18;;;31.20;81.80;;;;;;5017625;28;20173;-84
2021/07/22 11:57:00;;;;;;;11.82;9.98;;;31.20;82.00;;;;;;5006031;28;20042;-85
2021/07/22 11:59:29;;;;;;;12.90;10.35;;;31.30;83.10;;;;;;5007986;28;20033;-84
2021/07/22 12:01:57;;;;;;;11.52;10.40;;;31.40;83.00;;;;;;5009267;28;20045;-84
2021/07/22 12:04:30;;;;;;;13.80;10.77;;;31.50;83.40;;;;;;5008448;28;20042;-84
2021/07/22 12:06:59;;;;;;;13.23;10.55;;;31.50;83.60;;;;;;5005779;28;20054;-84
2021/07/22 12:09:27;;;;;;;14.23;10.30;;;31.50;83.80;;;;;;5025917;28;20041;-84
2021/07/22 12:12:04;;;;;;;10.98;9.88;;;31.60;83.40;;;;;;5006719;28;20057;-85
2021/07/22 12:14:32;;;;;;;12.88;10.10;;;31.60;83.00;;;;;;5008862;28;20558;-84
2021/07/22 12:17:02;;;;;;;11.68;10.35;;;31.50;82.90;;;;;;5011432;28;20511;-84
2021/07/22 12:19:31;;;;;;;13.23;9.95;;;31.50;83.20;;;;;;5007793;28;20049;-85
2021/07/22 12:22:37;;;;;;;12.43;10.35;;;31.50;82.60;;;;;;5007961;28;20049;-84
2021/07/22 12:25:07;;;;;;;9.98;8.95;;;31.50;81.70;;;;;;4970698;28;20043;-84
2021/07/22 12:27:42;;;;;;;11.30;10.00;;;31.50;81.60;;;;;;4972036;28;20090;-85
2021/07/22 12:30:21;;;;;;;10.00;9.00;;;31.40;81.80;;;;;;4970630;28;20047;-84
2021/07/22 12:32:53;;;;;;;9.95;8.85;;;31.50;82.90;;;;;;4970807;28;20070;-85
2021/07/22 12:35:40;;;;;;;11.75;9.18;;;31.60;82.70;;;;;;4955731;28;20047;-84
2021/07/22 12:38:08;;;;;;;10.43;8.82;;;31.50;81.90;;;;;;4966707;28;20503;-85
2021/07/22 12:40:42;;;;;;;10.45;9.32;;;31.60;82.30;;;;;;4970898;28;20051;-85
2021/07/22 12:43:18;;;;;;;13.98;9.45;;;31.60;81.80;;;;;;4969599;28;20046;-85
2021/07/22 12:45:47;;;;;;;11.18;9.48;;;31.60;81.60;;;;;;4984890;28;20047;-85
2021/07/22 12:48:14;;;;;;;13.90;10.23;;;31.60;81.30;;;;;;4970429;28;20057;-85
2021/07/22 12:50:50;;;;;;;11.82;9.52;;;31.60;81.40;;;;;;4968078;28;20074;-84